地図

経路データ

SID SEASON NUMBER BASIN SUBBASIN NAME ISO_TIME NATURE LAT LON WMO_WIND WMO_PRES WMO_AGENCY TRACK_TYPE DIST2LAND LANDFALL IFLAG USA_AGENCY USA_ATCF_ID USA_LAT USA_LON USA_RECORD USA_STATUS USA_WIND USA_PRES USA_SSHS USA_R34_NE USA_R34_SE USA_R34_SW USA_R34_NW USA_R50_NE USA_R50_SE USA_R50_SW USA_R50_NW USA_R64_NE USA_R64_SE USA_R64_SW USA_R64_NW USA_POCI USA_ROCI USA_RMW USA_EYE TOKYO_LAT TOKYO_LON TOKYO_GRADE TOKYO_WIND TOKYO_PRES TOKYO_R50_DIR TOKYO_R50_LONG TOKYO_R50_SHORT TOKYO_R30_DIR TOKYO_R30_LONG TOKYO_R30_SHORT TOKYO_LAND CMA_LAT CMA_LON CMA_CAT CMA_WIND CMA_PRES HKO_LAT HKO_LON HKO_CAT HKO_WIND HKO_PRES NEWDELHI_LAT NEWDELHI_LON NEWDELHI_GRADE NEWDELHI_WIND NEWDELHI_PRES NEWDELHI_CI NEWDELHI_DP NEWDELHI_POCI REUNION_LAT REUNION_LON REUNION_TYPE REUNION_WIND REUNION_PRES REUNION_TNUM REUNION_CI REUNION_RMW REUNION_R34_NE REUNION_R34_SE REUNION_R34_SW REUNION_R34_NW REUNION_R50_NE REUNION_R50_SE REUNION_R50_SW REUNION_R50_NW REUNION_R64_NE REUNION_R64_SE REUNION_R64_SW REUNION_R64_NW BOM_LAT BOM_LON BOM_TYPE BOM_WIND BOM_PRES BOM_TNUM BOM_CI BOM_RMW BOM_R34_NE BOM_R34_SE BOM_R34_SW BOM_R34_NW BOM_R50_NE BOM_R50_SE BOM_R50_SW BOM_R50_NW BOM_R64_NE BOM_R64_SE BOM_R64_SW BOM_R64_NW BOM_ROCI BOM_POCI BOM_EYE BOM_POS_METHOD BOM_PRES_METHOD NADI_LAT NADI_LON NADI_CAT NADI_WIND NADI_PRES WELLINGTON_LAT WELLINGTON_LON WELLINGTON_WIND WELLINGTON_PRES DS824_LAT DS824_LON DS824_STAGE DS824_WIND DS824_PRES TD9636_LAT TD9636_LON TD9636_STAGE TD9636_WIND TD9636_PRES TD9635_LAT TD9635_LON TD9635_WIND TD9635_PRES TD9635_ROCI NEUMANN_LAT NEUMANN_LON NEUMANN_CLASS NEUMANN_WIND NEUMANN_PRES MLC_LAT MLC_LON MLC_CLASS MLC_WIND MLC_PRES USA_GUST BOM_GUST BOM_GUST_PER REUNION_GUST REUNION_GUST_PER USA_SEAHGT USA_SEARAD_NE USA_SEARAD_SE USA_SEARAD_SW USA_SEARAD_NW STORM_SPEED STORM_DIR
1916282N15130 1916 58 WP MM NOT_NAMED 1916-10-08 09:00:00 NR 15.5000 129.800 main 593 544 __________O___ -1 15.5000 129.800 2 15 286
1916282N15130 1916 58 WP MM NOT_NAMED 1916-10-08 12:00:00 NR 15.7136 129.047 main 534 484 __________P___ -1 15.7136 129.047 2 15 286
1916282N15130 1916 58 WP MM NOT_NAMED 1916-10-08 15:00:00 NR 15.9205 128.324 main 475 431 __________P___ -1 15.9205 128.324 2 14 287
1916282N15130 1916 58 WP MM NOT_NAMED 1916-10-08 18:00:00 NR 16.1171 127.664 main 431 395 __________P___ -1 16.1171 127.664 2 12 288
1916282N15130 1916 58 WP MM NOT_NAMED 1916-10-08 21:00:00 NR 16.3000 127.100 main 395 372 __________O___ -1 16.3000 127.100 2 10 290
1916282N15130 1916 58 WP MM NOT_NAMED 1916-10-09 00:00:00 NR 16.4672 126.652 main 380 361 __________P___ -1 16.4672 126.652 2 8 293
1916282N15130 1916 58 WP MM NOT_NAMED 1916-10-09 03:00:00 NR 16.6210 126.294 main 361 352 __________P___ -1 16.6210 126.294 2 7 295
1916282N15130 1916 58 WP MM NOT_NAMED 1916-10-09 06:00:00 NR 16.7644 125.990 main 362 340 __________P___ -1 16.7644 125.990 2 6 296
1916282N15130 1916 58 WP MM NOT_NAMED 1916-10-09 09:00:00 NR 16.9000 125.700 main 340 308 __________O___ -1 16.9000 125.700 2 6 294
1916282N15130 1916 58 WP MM NOT_NAMED 1916-10-09 12:00:00 NR 17.0152 125.404 main 308 276 __________P___ -1 17.0152 125.404 2 6 292
1916282N15130 1916 58 WP MM NOT_NAMED 1916-10-09 15:00:00 NR 17.1264 125.109 main 276 245 __________P___ -1 17.1264 125.109 2 6 292
1916282N15130 1916 58 WP MM NOT_NAMED 1916-10-09 18:00:00 NR 17.2494 124.785 main 245 206 __________P___ -1 17.2494 124.785 2 7 292
1916282N15130 1916 58 WP MM NOT_NAMED 1916-10-09 21:00:00 NR 17.4000 124.400 main 206 158 __________O___ -1 17.4000 124.400 2 9 290
1916282N15130 1916 58 WP MM NOT_NAMED 1916-10-10 00:00:00 NR 17.5481 123.902 main 158 115 __________P___ -1 17.5481 123.902 2 11 288
1916282N15130 1916 58 WP MM NOT_NAMED 1916-10-10 03:00:00 NR 17.7308 123.344 main 105 62 __________P___ -1 17.7308 123.344 2 12 291
1916282N15130 1916 58 WP MM NOT_NAMED 1916-10-10 06:00:00 NR 17.9730 122.764 main 62 0 __________P___ -1 17.9730 122.764 2 12 298
1916282N15130 1916 58 WP MM NOT_NAMED 1916-10-10 09:00:00 NR 18.3000 122.200 main 0 0 __________O___ -1 18.3000 122.200 2 13 306
1916282N15130 1916 58 WP MM NOT_NAMED 1916-10-10 12:00:00 NR 18.7554 121.620 main 39 35 __________P___ -1 18.7554 121.620 2 15 313
1916282N15130 1916 58 WP MM NOT_NAMED 1916-10-10 15:00:00 NR 19.2906 121.073 main 81 79 __________P___ -1 19.2906 121.073 2 15 319
1916282N15130 1916 58 WP MM NOT_NAMED 1916-10-10 18:00:00 NR 19.8555 120.614 main 146 146 __________P___ -1 19.8555 120.614 2 13 327
1916282N15130 1916 58 WP MM NOT_NAMED 1916-10-10 21:00:00 NR 20.4000 120.300 main 172 133 __________O___ -1 20.4000 120.300 2 11 337
1916282N15130 1916 58 WP MM NOT_NAMED 1916-10-11 00:00:00 NR 20.8608 120.161 main 123 84 __________P___ -1 20.8608 120.161 2 9 353
1916282N15130 1916 58 WP MM NOT_NAMED 1916-10-11 03:00:00 NR 21.2938 120.173 main 84 46 __________P___ -1 21.2938 120.173 2 9 9
1916282N15130 1916 58 WP MM NOT_NAMED 1916-10-11 06:00:00 NR 21.7049 120.299 main 46 20 __________P___ -1 21.7049 120.299 2 9 21
1916282N15130 1916 58 WP MM NOT_NAMED 1916-10-11 09:00:00 NR 22.1000 120.500 main 20 0 __________O___ -1 22.1000 120.500 2 8 22
1916282N15130 1916 58 WP MM NOT_NAMED 1916-10-11 12:00:00 NR 22.4268 120.613 main 0 0 __________P___ -1 22.4268 120.613 2 7 23
1916282N15130 1916 58 WP MM NOT_NAMED 1916-10-11 15:00:00 NR 22.7495 120.802 main 0 0 __________P___ -1 22.7495 120.802 2 8 34
1916282N15130 1916 58 WP MM NOT_NAMED 1916-10-11 18:00:00 NR 23.1226 121.115 main 0 0 __________P___ -1 23.1226 121.115 2 11 41
1916282N15130 1916 58 WP MM NOT_NAMED 1916-10-11 21:00:00 NR 23.6000 121.600 main 15 15 __________O___ -1 23.6000 121.600 2 16 44
1916282N15130 1916 58 WP MM NOT_NAMED 1916-10-12 00:00:00 NR 24.2646 122.312 main 46 46 __________P___ -1 24.2646 122.312 2 20 46
1916282N15130 1916 58 WP MM NOT_NAMED 1916-10-12 03:00:00 NR 25.0280 123.200 main 120 120 __________P___ -1 25.0280 123.200 2 23 47
1916282N15130 1916 58 WP MM NOT_NAMED 1916-10-12 06:00:00 NR 25.8269 124.188 main 238 238 __________P___ -1 25.8269 124.188 2 24 49
1916282N15130 1916 58 WP MM NOT_NAMED 1916-10-12 09:00:00 NR 26.6000 125.200 main 366 366 __________O___ -1 26.6000 125.200 2 23 50
1916282N15130 1916 58 WP MM NOT_NAMED 1916-10-12 12:00:00 NR 27.2830 126.109 main 453 453 __________P___ -1 27.2830 126.109 2 21 51
1916282N15130 1916 58 WP MM NOT_NAMED 1916-10-12 15:00:00 NR 27.9292 127.024 main 480 373 __________P___ -1 27.9292 127.024 2 21 52
1916282N15130 1916 58 WP MM NOT_NAMED 1916-10-12 18:00:00 NR 28.5359 127.952 main 368 270 __________P___ -1 28.5359 127.952 2 20 55
1916282N15130 1916 58 WP MM NOT_NAMED 1916-10-12 21:00:00 NR 29.1000 128.900 main 265 178 __________O___ -1 29.1000 128.900 2 20 57
1916282N15130 1916 58 WP MM NOT_NAMED 1916-10-13 00:00:00 NR 29.6457 129.896 main 174 100 __________P___ -1 29.6457 129.896 2 20 59
1916282N15130 1916 58 WP MM NOT_NAMED 1916-10-13 03:00:00 NR 30.1466 130.909 main 102 86 __________P___ -1 30.1466 130.909 2 20 61
1916282N15130 1916 58 WP MM NOT_NAMED 1916-10-13 06:00:00 NR 30.5990 131.917 main 101 101 __________P___ -1 30.5990 131.917 2 19 64
1916282N15130 1916 58 WP MM NOT_NAMED 1916-10-13 09:00:00 NR 31.0000 132.900 main 149 149 __________O___ -1 31.0000 132.900 2 18 66
1916282N15130 1916 58 WP MM NOT_NAMED 1916-10-13 12:00:00 NR 31.3498 133.840 main 173 167 __________P___ -1 31.3498 133.840 2 17 67
1916282N15130 1916 58 WP MM NOT_NAMED 1916-10-13 15:00:00 NR 31.6583 134.745 main 173 168 __________P___ -1 31.6583 134.745 2 16 69
1916282N15130 1916 58 WP MM NOT_NAMED 1916-10-13 18:00:00 NR 31.9378 135.627 main 168 145 __________P___ -1 31.9378 135.627 2 16 70
1916282N15130 1916 58 WP MM NOT_NAMED 1916-10-13 21:00:00 NR 32.2000 136.500 main 148 __________O___ -1 32.2000 136.500 2 16 70

デジタル台風データ・検索

IBTrACS Databaseについて

本データベースは、米国NOAAが公開する1842年以降の世界の熱帯低気圧のベストトラックデータアーカイブInternational Best Track Archive for Climate Stewardship (IBTrACS)を、ウェブで閲覧しやすい形式に変換したものです。

最終更新日:2021-12-01